sensor_id;sensor_type;location;lat;lon;timestamp;P1;durP1;ratioP1;P2;durP2;ratioP2
11386;SDS011;5748;53.102;8.456;2023-03-23T00:02:23;4.30;;;3.90;;
11386;SDS011;5748;53.102;8.456;2023-03-23T00:04:51;4.07;;;3.77;;
11386;SDS011;5748;53.102;8.456;2023-03-23T00:07:19;4.80;;;4.40;;
11386;SDS011;5748;53.102;8.456;2023-03-23T00:09:47;4.67;;;4.27;;
11386;SDS011;5748;53.102;8.456;2023-03-23T00:12:19;6.07;;;5.53;;
11386;SDS011;5748;53.102;8.456;2023-03-23T00:14:57;4.77;;;4.37;;
11386;SDS011;5748;53.102;8.456;2023-03-23T00:17:27;4.10;;;3.80;;
11386;SDS011;5748;53.102;8.456;2023-03-23T00:19:54;4.00;;;3.70;;
11386;SDS011;5748;53.102;8.456;2023-03-23T00:22:22;4.00;;;3.70;;
11386;SDS011;5748;53.102;8.456;2023-03-23T00:24:50;4.40;;;4.00;;
11386;SDS011;5748;53.102;8.456;2023-03-23T00:27:17;4.57;;;4.20;;
11386;SDS011;5748;53.102;8.456;2023-03-23T00:29:47;4.17;;;3.83;;
11386;SDS011;5748;53.102;8.456;2023-03-23T00:32:17;4.53;;;4.13;;
11386;SDS011;5748;53.102;8.456;2023-03-23T00:34:47;3.97;;;3.67;;
11386;SDS011;5748;53.102;8.456;2023-03-23T00:37:14;4.50;;;4.10;;
11386;SDS011;5748;53.102;8.456;2023-03-23T00:39:42;4.03;;;3.73;;
11386;SDS011;5748;53.102;8.456;2023-03-23T00:42:14;5.00;;;4.60;;
11386;SDS011;5748;53.102;8.456;2023-03-23T00:44:41;4.33;;;4.03;;
11386;SDS011;5748;53.102;8.456;2023-03-23T00:47:10;4.10;;;3.70;;
11386;SDS011;5748;53.102;8.456;2023-03-23T00:49:37;5.57;;;5.07;;
11386;SDS011;5748;53.102;8.456;2023-03-23T00:52:07;4.67;;;4.27;;
11386;SDS011;5748;53.102;8.456;2023-03-23T00:54:35;6.00;;;5.50;;
11386;SDS011;5748;53.102;8.456;2023-03-23T00:57:03;4.83;;;4.43;;
11386;SDS011;5748;53.102;8.456;2023-03-23T00:59:31;4.60;;;4.20;;
11386;SDS011;5748;53.102;8.456;2023-03-23T01:01:58;4.23;;;3.87;;
11386;SDS011;5748;53.102;8.456;2023-03-23T01:04:25;4.03;;;3.73;;
11386;SDS011;5748;53.102;8.456;2023-03-23T01:06:53;3.80;;;3.50;;
11386;SDS011;5748;53.102;8.456;2023-03-23T01:09:26;4.43;;;4.03;;
11386;SDS011;5748;53.102;8.456;2023-03-23T01:11:54;4.13;;;3.83;;
11386;SDS011;5748;53.102;8.456;2023-03-23T01:14:21;3.93;;;3.60;;
11386;SDS011;5748;53.102;8.456;2023-03-23T01:16:50;3.80;;;3.50;;
11386;SDS011;5748;53.102;8.456;2023-03-23T01:19:17;3.97;;;3.57;;
11386;SDS011;5748;53.102;8.456;2023-03-23T01:21:44;3.53;;;3.23;;
11386;SDS011;5748;53.102;8.456;2023-03-23T01:24:11;4.50;;;4.13;;
11386;SDS011;5748;53.102;8.456;2023-03-23T01:26:39;4.50;;;4.10;;
11386;SDS011;5748;53.102;8.456;2023-03-23T01:29:06;3.93;;;3.40;;
11386;SDS011;5748;53.102;8.456;2023-03-23T01:31:34;4.33;;;4.03;;
11386;SDS011;5748;53.102;8.456;2023-03-23T01:34:01;4.30;;;3.90;;
11386;SDS011;5748;53.102;8.456;2023-03-23T01:36:29;4.10;;;3.80;;
11386;SDS011;5748;53.102;8.456;2023-03-23T01:38:58;4.33;;;3.93;;
11386;SDS011;5748;53.102;8.456;2023-03-23T01:41:28;4.30;;;4.00;;
11386;SDS011;5748;53.102;8.456;2023-03-23T01:43:58;3.70;;;3.40;;
11386;SDS011;5748;53.102;8.456;2023-03-23T01:46:29;4.00;;;3.70;;
11386;SDS011;5748;53.102;8.456;2023-03-23T01:48:58;4.13;;;3.83;;
11386;SDS011;5748;53.102;8.456;2023-03-23T01:51:31;4.23;;;3.83;;
11386;SDS011;5748;53.102;8.456;2023-03-23T01:54:04;3.50;;;3.20;;
11386;SDS011;5748;53.102;8.456;2023-03-23T01:56:35;3.50;;;3.20;;
11386;SDS011;5748;53.102;8.456;2023-03-23T01:59:08;3.43;;;3.20;;
11386;SDS011;5748;53.102;8.456;2023-03-23T02:01:36;3.40;;;3.13;;
11386;SDS011;5748;53.102;8.456;2023-03-23T02:04:08;3.27;;;3.07;;
11386;SDS011;5748;53.102;8.456;2023-03-23T02:06:35;4.10;;;3.70;;
11386;SDS011;5748;53.102;8.456;2023-03-23T02:09:02;3.60;;;3.30;;
11386;SDS011;5748;53.102;8.456;2023-03-23T02:11:31;3.90;;;3.60;;
11386;SDS011;5748;53.102;8.456;2023-03-23T02:13:58;4.40;;;4.00;;
11386;SDS011;5748;53.102;8.456;2023-03-23T02:16:30;4.10;;;3.70;;
11386;SDS011;5748;53.102;8.456;2023-03-23T02:19:07;4.70;;;4.30;;
11386;SDS011;5748;53.102;8.456;2023-03-23T02:22:05;5.20;;;4.03;;
11386;SDS011;5748;53.102;8.456;2023-03-23T02:24:55;3.80;;;3.50;;
11386;SDS011;5748;53.102;8.456;2023-03-23T02:27:40;3.57;;;3.27;;
11386;SDS011;5748;53.102;8.456;2023-03-23T02:30:48;3.63;;;3.33;;
11386;SDS011;5748;53.102;8.456;2023-03-23T02:33:45;4.00;;;3.70;;
11386;SDS011;5748;53.102;8.456;2023-03-23T02:36:19;3.77;;;3.47;;
11386;SDS011;5748;53.102;8.456;2023-03-23T02:38:53;3.53;;;3.23;;
11386;SDS011;5748;53.102;8.456;2023-03-23T02:41:28;3.37;;;3.07;;
11386;SDS011;5748;53.102;8.456;2023-03-23T02:44:01;3.60;;;3.30;;
11386;SDS011;5748;53.102;8.456;2023-03-23T02:46:30;3.57;;;3.27;;
11386;SDS011;5748;53.102;8.456;2023-03-23T02:48:59;3.60;;;3.30;;
11386;SDS011;5748;53.102;8.456;2023-03-23T02:51:28;3.43;;;3.13;;
11386;SDS011;5748;53.102;8.456;2023-03-23T02:53:56;3.53;;;3.10;;
11386;SDS011;5748;53.102;8.456;2023-03-23T02:56:25;3.90;;;3.27;;
11386;SDS011;5748;53.102;8.456;2023-03-23T02:58:54;4.03;;;3.70;;
11386;SDS011;5748;53.102;8.456;2023-03-23T03:04:26;3.60;;;3.30;;
11386;SDS011;5748;53.102;8.456;2023-03-23T03:07:07;3.07;;;2.87;;
11386;SDS011;5748;53.102;8.456;2023-03-23T03:10:04;3.50;;;3.20;;
11386;SDS011;5748;53.102;8.456;2023-03-23T03:12:39;3.50;;;3.20;;
11386;SDS011;5748;53.102;8.456;2023-03-23T03:15:17;3.43;;;3.13;;
11386;SDS011;5748;53.102;8.456;2023-03-23T03:17:55;3.13;;;2.70;;
11386;SDS011;5748;53.102;8.456;2023-03-23T03:20:33;3.60;;;3.30;;
11386;SDS011;5748;53.102;8.456;2023-03-23T03:23:07;3.77;;;3.40;;
11386;SDS011;5748;53.102;8.456;2023-03-23T03:25:37;3.70;;;3.40;;
11386;SDS011;5748;53.102;8.456;2023-03-23T03:28:07;3.43;;;3.13;;
11386;SDS011;5748;53.102;8.456;2023-03-23T03:30:35;3.10;;;2.80;;
11386;SDS011;5748;53.102;8.456;2023-03-23T03:33:04;3.73;;;3.30;;
11386;SDS011;5748;53.102;8.456;2023-03-23T03:35:34;3.50;;;3.20;;
11386;SDS011;5748;53.102;8.456;2023-03-23T03:38:06;3.20;;;2.83;;
11386;SDS011;5748;53.102;8.456;2023-03-23T03:40:36;3.97;;;3.57;;
11386;SDS011;5748;53.102;8.456;2023-03-23T03:43:03;3.20;;;2.90;;
11386;SDS011;5748;53.102;8.456;2023-03-23T03:45:32;3.50;;;3.20;;
11386;SDS011;5748;53.102;8.456;2023-03-23T03:47:59;3.50;;;3.20;;
11386;SDS011;5748;53.102;8.456;2023-03-23T03:50:26;3.97;;;3.57;;
11386;SDS011;5748;53.102;8.456;2023-03-23T03:52:55;3.47;;;3.17;;
11386;SDS011;5748;53.102;8.456;2023-03-23T03:55:22;4.00;;;3.50;;
11386;SDS011;5748;53.102;8.456;2023-03-23T03:57:50;3.83;;;3.30;;
11386;SDS011;5748;53.102;8.456;2023-03-23T04:00:17;3.60;;;3.30;;
11386;SDS011;5748;53.102;8.456;2023-03-23T04:02:45;3.20;;;2.90;;
11386;SDS011;5748;53.102;8.456;2023-03-23T04:05:15;3.20;;;2.90;;
11386;SDS011;5748;53.102;8.456;2023-03-23T04:07:43;3.83;;;3.53;;
11386;SDS011;5748;53.102;8.456;2023-03-23T04:10:15;5.23;;;4.73;;
11386;SDS011;5748;53.102;8.456;2023-03-23T04:12:44;3.80;;;3.50;;
11386;SDS011;5748;53.102;8.456;2023-03-23T04:15:11;4.03;;;3.73;;
11386;SDS011;5748;53.102;8.456;2023-03-23T04:17:38;4.57;;;4.17;;
11386;SDS011;5748;53.102;8.456;2023-03-23T04:20:07;5.33;;;4.70;;
11386;SDS011;5748;53.102;8.456;2023-03-23T04:22:42;4.13;;;3.73;;
11386;SDS011;5748;53.102;8.456;2023-03-23T04:25:10;3.60;;;3.30;;
11386;SDS011;5748;53.102;8.456;2023-03-23T04:27:41;3.97;;;3.63;;
11386;SDS011;5748;53.102;8.456;2023-03-23T04:30:12;3.83;;;3.50;;
11386;SDS011;5748;53.102;8.456;2023-03-23T04:32:40;3.17;;;2.97;;
11386;SDS011;5748;53.102;8.456;2023-03-23T04:35:08;3.70;;;3.40;;
11386;SDS011;5748;53.102;8.456;2023-03-23T04:37:38;3.27;;;2.97;;
11386;SDS011;5748;53.102;8.456;2023-03-23T04:40:06;3.80;;;3.40;;
11386;SDS011;5748;53.102;8.456;2023-03-23T04:42:37;3.60;;;3.30;;
11386;SDS011;5748;53.102;8.456;2023-03-23T04:45:07;2.80;;;2.60;;
11386;SDS011;5748;53.102;8.456;2023-03-23T04:47:46;3.10;;;2.80;;
11386;SDS011;5748;53.102;8.456;2023-03-23T04:50:18;3.40;;;3.10;;
11386;SDS011;5748;53.102;8.456;2023-03-23T04:52:49;2.97;;;2.70;;
11386;SDS011;5748;53.102;8.456;2023-03-23T04:55:17;3.77;;;3.17;;
11386;SDS011;5748;53.102;8.456;2023-03-23T04:57:45;3.53;;;3.23;;
11386;SDS011;5748;53.102;8.456;2023-03-23T05:00:14;3.53;;;3.23;;
11386;SDS011;5748;53.102;8.456;2023-03-23T05:02:43;3.50;;;3.20;;
11386;SDS011;5748;53.102;8.456;2023-03-23T05:05:12;4.17;;;3.80;;
11386;SDS011;5748;53.102;8.456;2023-03-23T05:07:41;3.30;;;3.00;;
11386;SDS011;5748;53.102;8.456;2023-03-23T05:10:08;2.90;;;2.60;;
11386;SDS011;5748;53.102;8.456;2023-03-23T05:12:37;3.40;;;3.10;;
11386;SDS011;5748;53.102;8.456;2023-03-23T05:15:06;3.30;;;2.93;;
11386;SDS011;5748;53.102;8.456;2023-03-23T05:17:39;2.97;;;2.67;;
11386;SDS011;5748;53.102;8.456;2023-03-23T05:20:10;3.30;;;3.00;;
11386;SDS011;5748;53.102;8.456;2023-03-23T05:22:39;2.97;;;2.70;;
11386;SDS011;5748;53.102;8.456;2023-03-23T05:25:07;3.50;;;3.00;;
11386;SDS011;5748;53.102;8.456;2023-03-23T05:27:35;3.00;;;2.70;;
11386;SDS011;5748;53.102;8.456;2023-03-23T05:30:03;3.10;;;2.53;;
11386;SDS011;5748;53.102;8.456;2023-03-23T05:32:32;2.90;;;2.67;;
11386;SDS011;5748;53.102;8.456;2023-03-23T05:35:00;3.00;;;2.77;;
11386;SDS011;5748;53.102;8.456;2023-03-23T05:37:29;2.73;;;2.53;;
11386;SDS011;5748;53.102;8.456;2023-03-23T05:39:57;3.57;;;3.20;;
11386;SDS011;5748;53.102;8.456;2023-03-23T05:42:30;3.40;;;3.10;;
11386;SDS011;5748;53.102;8.456;2023-03-23T05:44:58;3.20;;;2.83;;
11386;SDS011;5748;53.102;8.456;2023-03-23T05:47:25;3.10;;;2.90;;
11386;SDS011;5748;53.102;8.456;2023-03-23T05:49:52;2.80;;;2.50;;
11386;SDS011;5748;53.102;8.456;2023-03-23T05:52:21;3.03;;;2.70;;
11386;SDS011;5748;53.102;8.456;2023-03-23T05:54:49;2.77;;;2.50;;
11386;SDS011;5748;53.102;8.456;2023-03-23T05:57:17;2.67;;;2.40;;
11386;SDS011;5748;53.102;8.456;2023-03-23T05:59:46;2.40;;;2.20;;
11386;SDS011;5748;53.102;8.456;2023-03-23T06:02:13;2.63;;;2.43;;
11386;SDS011;5748;53.102;8.456;2023-03-23T06:04:41;2.70;;;2.50;;
11386;SDS011;5748;53.102;8.456;2023-03-23T06:07:08;2.60;;;2.40;;
11386;SDS011;5748;53.102;8.456;2023-03-23T06:09:40;2.50;;;2.30;;
11386;SDS011;5748;53.102;8.456;2023-03-23T06:12:08;2.60;;;2.40;;
11386;SDS011;5748;53.102;8.456;2023-03-23T06:14:35;3.17;;;2.87;;
11386;SDS011;5748;53.102;8.456;2023-03-23T06:17:03;2.93;;;2.50;;
11386;SDS011;5748;53.102;8.456;2023-03-23T06:19:31;2.70;;;2.50;;
11386;SDS011;5748;53.102;8.456;2023-03-23T06:21:59;3.10;;;2.80;;
11386;SDS011;5748;53.102;8.456;2023-03-23T06:24:26;3.03;;;2.53;;
11386;SDS011;5748;53.102;8.456;2023-03-23T06:26:55;3.90;;;3.20;;
11386;SDS011;5748;53.102;8.456;2023-03-23T06:29:22;3.40;;;2.60;;
11386;SDS011;5748;53.102;8.456;2023-03-23T06:31:52;2.60;;;2.40;;
11386;SDS011;5748;53.102;8.456;2023-03-23T06:34:21;3.37;;;2.40;;
11386;SDS011;5748;53.102;8.456;2023-03-23T06:36:49;3.17;;;2.57;;
11386;SDS011;5748;53.102;8.456;2023-03-23T06:39:16;2.83;;;2.53;;
11386;SDS011;5748;53.102;8.456;2023-03-23T06:41:43;3.07;;;2.50;;
11386;SDS011;5748;53.102;8.456;2023-03-23T06:44:12;2.30;;;2.10;;
11386;SDS011;5748;53.102;8.456;2023-03-23T06:46:39;2.57;;;2.00;;
11386;SDS011;5748;53.102;8.456;2023-03-23T06:49:06;2.93;;;2.43;;
11386;SDS011;5748;53.102;8.456;2023-03-23T06:51:34;3.50;;;3.07;;
11386;SDS011;5748;53.102;8.456;2023-03-23T06:54:02;2.90;;;2.53;;
11386;SDS011;5748;53.102;8.456;2023-03-23T06:56:30;2.60;;;2.40;;
11386;SDS011;5748;53.102;8.456;2023-03-23T06:58:57;3.10;;;2.60;;
11386;SDS011;5748;53.102;8.456;2023-03-23T07:01:26;2.80;;;2.20;;
11386;SDS011;5748;53.102;8.456;2023-03-23T07:06:30;2.50;;;2.30;;
11386;SDS011;5748;53.102;8.456;2023-03-23T07:08:57;2.10;;;1.90;;
11386;SDS011;5748;53.102;8.456;2023-03-23T07:11:24;2.60;;;2.10;;
11386;SDS011;5748;53.102;8.456;2023-03-23T07:13:52;2.20;;;1.90;;
11386;SDS011;5748;53.102;8.456;2023-03-23T07:16:19;2.17;;;1.63;;
11386;SDS011;5748;53.102;8.456;2023-03-23T07:18:48;1.80;;;1.40;;
11386;SDS011;5748;53.102;8.456;2023-03-23T07:21:16;1.57;;;1.47;;
11386;SDS011;5748;53.102;8.456;2023-03-23T07:23:43;2.13;;;1.60;;
11386;SDS011;5748;53.102;8.456;2023-03-23T07:26:13;1.60;;;1.30;;
11386;SDS011;5748;53.102;8.456;2023-03-23T07:28:40;1.57;;;1.10;;
11386;SDS011;5748;53.102;8.456;2023-03-23T07:31:07;1.30;;;1.00;;
11386;SDS011;5748;53.102;8.456;2023-03-23T07:33:34;1.13;;;1.00;;
11386;SDS011;5748;53.102;8.456;2023-03-23T07:38:53;1.70;;;1.10;;
11386;SDS011;5748;53.102;8.456;2023-03-23T07:41:21;2.20;;;1.03;;
11386;SDS011;5748;53.102;8.456;2023-03-23T07:43:48;1.53;;;1.00;;
11386;SDS011;5748;53.102;8.456;2023-03-23T07:46:15;1.40;;;0.80;;
11386;SDS011;5748;53.102;8.456;2023-03-23T07:48:42;1.10;;;0.80;;
11386;SDS011;5748;53.102;8.456;2023-03-23T07:51:09;1.33;;;0.93;;
11386;SDS011;5748;53.102;8.456;2023-03-23T07:53:38;1.10;;;1.00;;
11386;SDS011;5748;53.102;8.456;2023-03-23T07:56:05;1.47;;;0.90;;
11386;SDS011;5748;53.102;8.456;2023-03-23T07:58:34;1.00;;;0.80;;
11386;SDS011;5748;53.102;8.456;2023-03-23T08:01:01;1.30;;;0.93;;
11386;SDS011;5748;53.102;8.456;2023-03-23T08:03:28;1.00;;;0.90;;
11386;SDS011;5748;53.102;8.456;2023-03-23T08:05:57;1.33;;;0.93;;
11386;SDS011;5748;53.102;8.456;2023-03-23T08:08:25;2.10;;;1.40;;
11386;SDS011;5748;53.102;8.456;2023-03-23T08:10:53;1.27;;;1.10;;
11386;SDS011;5748;53.102;8.456;2023-03-23T08:13:20;1.27;;;1.03;;
11386;SDS011;5748;53.102;8.456;2023-03-23T08:15:47;1.27;;;1.00;;
11386;SDS011;5748;53.102;8.456;2023-03-23T08:18:14;2.00;;;1.30;;
11386;SDS011;5748;53.102;8.456;2023-03-23T08:20:55;2.33;;;1.43;;
11386;SDS011;5748;53.102;8.456;2023-03-23T08:23:22;2.07;;;1.30;;
11386;SDS011;5748;53.102;8.456;2023-03-23T08:25:49;1.87;;;1.20;;
11386;SDS011;5748;53.102;8.456;2023-03-23T08:28:18;2.30;;;1.27;;
11386;SDS011;5748;53.102;8.456;2023-03-23T08:30:45;1.90;;;1.23;;
11386;SDS011;5748;53.102;8.456;2023-03-23T08:33:13;2.03;;;1.10;;
11386;SDS011;5748;53.102;8.456;2023-03-23T08:35:40;1.53;;;1.13;;
11386;SDS011;5748;53.102;8.456;2023-03-23T08:38:08;1.70;;;1.20;;
11386;SDS011;5748;53.102;8.456;2023-03-23T08:40:36;1.77;;;1.20;;
11386;SDS011;5748;53.102;8.456;2023-03-23T08:43:04;1.23;;;1.10;;
11386;SDS011;5748;53.102;8.456;2023-03-23T08:45:33;2.30;;;1.53;;
11386;SDS011;5748;53.102;8.456;2023-03-23T08:48:00;1.73;;;1.20;;
11386;SDS011;5748;53.102;8.456;2023-03-23T08:50:27;2.93;;;1.50;;
11386;SDS011;5748;53.102;8.456;2023-03-23T08:52:55;1.63;;;1.10;;
11386;SDS011;5748;53.102;8.456;2023-03-23T08:55:23;1.33;;;1.20;;
11386;SDS011;5748;53.102;8.456;2023-03-23T08:57:51;1.60;;;1.30;;
11386;SDS011;5748;53.102;8.456;2023-03-23T09:00:19;2.10;;;1.20;;
11386;SDS011;5748;53.102;8.456;2023-03-23T09:02:53;1.40;;;1.30;;
11386;SDS011;5748;53.102;8.456;2023-03-23T09:05:22;2.03;;;1.30;;
11386;SDS011;5748;53.102;8.456;2023-03-23T09:07:52;1.77;;;1.20;;
11386;SDS011;5748;53.102;8.456;2023-03-23T09:10:24;1.90;;;1.20;;
11386;SDS011;5748;53.102;8.456;2023-03-23T09:12:52;1.67;;;1.37;;
11386;SDS011;5748;53.102;8.456;2023-03-23T09:15:19;2.87;;;1.37;;
11386;SDS011;5748;53.102;8.456;2023-03-23T09:17:48;2.33;;;1.20;;
11386;SDS011;5748;53.102;8.456;2023-03-23T09:20:22;3.03;;;1.20;;
11386;SDS011;5748;53.102;8.456;2023-03-23T09:22:52;2.43;;;1.40;;
11386;SDS011;5748;53.102;8.456;2023-03-23T09:25:22;2.50;;;1.50;;
11386;SDS011;5748;53.102;8.456;2023-03-23T09:27:52;2.43;;;1.43;;
11386;SDS011;5748;53.102;8.456;2023-03-23T09:30:21;1.73;;;1.30;;
11386;SDS011;5748;53.102;8.456;2023-03-23T09:32:53;1.40;;;1.20;;
11386;SDS011;5748;53.102;8.456;2023-03-23T09:35:20;2.60;;;1.23;;
11386;SDS011;5748;53.102;8.456;2023-03-23T09:37:49;1.70;;;1.30;;
11386;SDS011;5748;53.102;8.456;2023-03-23T09:40:19;3.17;;;1.53;;
11386;SDS011;5748;53.102;8.456;2023-03-23T09:42:53;2.20;;;1.37;;
11386;SDS011;5748;53.102;8.456;2023-03-23T09:45:41;1.87;;;1.20;;
11386;SDS011;5748;53.102;8.456;2023-03-23T09:48:29;3.87;;;1.67;;
11386;SDS011;5748;53.102;8.456;2023-03-23T09:51:09;1.37;;;1.27;;
11386;SDS011;5748;53.102;8.456;2023-03-23T09:53:45;2.40;;;1.40;;
11386;SDS011;5748;53.102;8.456;2023-03-23T09:56:17;2.93;;;1.50;;
11386;SDS011;5748;53.102;8.456;2023-03-23T09:58:56;2.23;;;1.50;;
11386;SDS011;5748;53.102;8.456;2023-03-23T10:01:31;3.10;;;1.20;;
11386;SDS011;5748;53.102;8.456;2023-03-23T10:04:09;1.90;;;1.23;;
11386;SDS011;5748;53.102;8.456;2023-03-23T10:06:42;4.20;;;1.73;;
11386;SDS011;5748;53.102;8.456;2023-03-23T10:09:13;1.70;;;1.07;;
11386;SDS011;5748;53.102;8.456;2023-03-23T10:11:46;1.57;;;1.20;;
11386;SDS011;5748;53.102;8.456;2023-03-23T10:17:17;1.87;;;1.30;;
11386;SDS011;5748;53.102;8.456;2023-03-23T10:19:51;1.63;;;1.13;;
11386;SDS011;5748;53.102;8.456;2023-03-23T10:22:25;3.30;;;1.50;;
11386;SDS011;5748;53.102;8.456;2023-03-23T10:25:01;3.70;;;1.70;;
11386;SDS011;5748;53.102;8.456;2023-03-23T10:27:42;2.37;;;1.57;;
11386;SDS011;5748;53.102;8.456;2023-03-23T10:30:15;2.87;;;1.60;;
11386;SDS011;5748;53.102;8.456;2023-03-23T10:32:52;3.07;;;1.80;;
11386;SDS011;5748;53.102;8.456;2023-03-23T10:35:26;2.20;;;1.40;;
11386;SDS011;5748;53.102;8.456;2023-03-23T10:38:17;2.50;;;1.60;;
11386;SDS011;5748;53.102;8.456;2023-03-23T10:40:52;2.00;;;1.60;;
11386;SDS011;5748;53.102;8.456;2023-03-23T10:43:23;3.87;;;2.00;;
11386;SDS011;5748;53.102;8.456;2023-03-23T10:45:53;2.33;;;1.80;;
11386;SDS011;5748;53.102;8.456;2023-03-23T10:48:28;2.37;;;1.50;;
11386;SDS011;5748;53.102;8.456;2023-03-23T10:51:00;3.60;;;1.90;;
11386;SDS011;5748;53.102;8.456;2023-03-23T10:53:31;2.27;;;1.50;;
11386;SDS011;5748;53.102;8.456;2023-03-23T10:56:03;1.90;;;1.60;;
11386;SDS011;5748;53.102;8.456;2023-03-23T10:58:32;1.90;;;1.30;;
11386;SDS011;5748;53.102;8.456;2023-03-23T11:01:01;2.53;;;1.50;;
11386;SDS011;5748;53.102;8.456;2023-03-23T11:03:37;3.37;;;1.97;;
11386;SDS011;5748;53.102;8.456;2023-03-23T11:06:09;2.50;;;1.70;;
11386;SDS011;5748;53.102;8.456;2023-03-23T11:08:46;3.03;;;1.87;;
11386;SDS011;5748;53.102;8.456;2023-03-23T11:11:16;2.87;;;1.90;;
11386;SDS011;5748;53.102;8.456;2023-03-23T11:13:47;2.57;;;1.70;;
11386;SDS011;5748;53.102;8.456;2023-03-23T11:16:23;2.37;;;1.50;;
11386;SDS011;5748;53.102;8.456;2023-03-23T11:18:52;5.20;;;1.63;;
11386;SDS011;5748;53.102;8.456;2023-03-23T11:21:22;2.27;;;1.50;;
11386;SDS011;5748;53.102;8.456;2023-03-23T11:23:51;2.87;;;1.90;;
11386;SDS011;5748;53.102;8.456;2023-03-23T11:26:22;2.80;;;1.77;;
11386;SDS011;5748;53.102;8.456;2023-03-23T11:28:55;2.47;;;1.70;;
11386;SDS011;5748;53.102;8.456;2023-03-23T11:31:29;2.80;;;1.70;;
11386;SDS011;5748;53.102;8.456;2023-03-23T11:34:01;2.97;;;1.70;;
11386;SDS011;5748;53.102;8.456;2023-03-23T11:36:32;2.80;;;1.60;;
11386;SDS011;5748;53.102;8.456;2023-03-23T11:39:03;4.47;;;1.67;;
11386;SDS011;5748;53.102;8.456;2023-03-23T11:41:45;2.70;;;1.30;;
11386;SDS011;5748;53.102;8.456;2023-03-23T11:44:13;2.28;;;1.30;;
11386;SDS011;5748;53.102;8.456;2023-03-23T11:46:43;1.45;;;1.20;;
11386;SDS011;5748;53.102;8.456;2023-03-23T11:49:25;2.65;;;1.20;;
11386;SDS011;5748;53.102;8.456;2023-03-23T11:52:08;1.48;;;1.00;;
11386;SDS011;5748;53.102;8.456;2023-03-23T11:54:42;2.08;;;1.08;;
11386;SDS011;5748;53.102;8.456;2023-03-23T11:57:15;2.38;;;1.38;;
11386;SDS011;5748;53.102;8.456;2023-03-23T11:59:43;2.67;;;1.13;;
11386;SDS011;5748;53.102;8.456;2023-03-23T12:02:19;1.35;;;1.00;;
11386;SDS011;5748;53.102;8.456;2023-03-23T12:08:14;1.80;;;1.27;;
11386;SDS011;5748;53.102;8.456;2023-03-23T12:10:56;1.42;;;1.20;;
11386;SDS011;5748;53.102;8.456;2023-03-23T12:13:33;1.58;;;1.33;;
11386;SDS011;5748;53.102;8.456;2023-03-23T12:16:28;1.98;;;1.40;;
11386;SDS011;5748;53.102;8.456;2023-03-23T12:19:08;1.60;;;1.50;;
11386;SDS011;5748;53.102;8.456;2023-03-23T12:21:45;1.30;;;1.20;;
11386;SDS011;5748;53.102;8.456;2023-03-23T12:24:29;1.70;;;1.38;;
11386;SDS011;5748;53.102;8.456;2023-03-23T12:27:11;1.30;;;1.00;;
11386;SDS011;5748;53.102;8.456;2023-03-23T12:32:50;1.10;;;1.00;;
11386;SDS011;5748;53.102;8.456;2023-03-23T12:35:36;1.60;;;1.17;;
11386;SDS011;5748;53.102;8.456;2023-03-23T12:38:22;1.65;;;1.10;;
11386;SDS011;5748;53.102;8.456;2023-03-23T12:41:12;1.60;;;1.08;;
11386;SDS011;5748;53.102;8.456;2023-03-23T12:43:47;1.38;;;1.10;;
11386;SDS011;5748;53.102;8.456;2023-03-23T12:46:25;1.25;;;1.15;;
11386;SDS011;5748;53.102;8.456;2023-03-23T12:49:07;2.10;;;1.17;;
11386;SDS011;5748;53.102;8.456;2023-03-23T12:51:42;1.40;;;0.93;;
11386;SDS011;5748;53.102;8.456;2023-03-23T12:54:15;1.48;;;1.00;;
11386;SDS011;5748;53.102;8.456;2023-03-23T12:56:51;1.20;;;0.95;;
11386;SDS011;5748;53.102;8.456;2023-03-23T12:59:25;2.13;;;1.25;;
11386;SDS011;5748;53.102;8.456;2023-03-23T13:02:01;1.73;;;1.10;;
11386;SDS011;5748;53.102;8.456;2023-03-23T13:04:37;1.35;;;0.98;;
11386;SDS011;5748;53.102;8.456;2023-03-23T13:07:10;2.60;;;1.27;;
11386;SDS011;5748;53.102;8.456;2023-03-23T13:09:46;1.52;;;1.10;;
11386;SDS011;5748;53.102;8.456;2023-03-23T13:12:20;2.30;;;1.20;;
11386;SDS011;5748;53.102;8.456;2023-03-23T13:14:52;2.35;;;1.40;;
11386;SDS011;5748;53.102;8.456;2023-03-23T13:17:35;2.25;;;1.70;;
11386;SDS011;5748;53.102;8.456;2023-03-23T13:20:20;1.92;;;1.33;;
11386;SDS011;5748;53.102;8.456;2023-03-23T13:23:08;2.15;;;1.20;;
11386;SDS011;5748;53.102;8.456;2023-03-23T13:25:43;1.30;;;1.02;;
11386;SDS011;5748;53.102;8.456;2023-03-23T13:31:40;3.10;;;2.30;;
11386;SDS011;5748;53.102;8.456;2023-03-23T13:34:12;3.00;;;1.83;;
11386;SDS011;5748;53.102;8.456;2023-03-23T13:36:44;2.53;;;1.60;;
11386;SDS011;5748;53.102;8.456;2023-03-23T13:39:21;2.17;;;1.50;;
11386;SDS011;5748;53.102;8.456;2023-03-23T13:42:00;1.57;;;1.40;;
11386;SDS011;5748;53.102;8.456;2023-03-23T13:51:46;1.63;;;0.90;;
11386;SDS011;5748;53.102;8.456;2023-03-23T13:54:24;1.10;;;0.90;;
11386;SDS011;5748;53.102;8.456;2023-03-23T13:56:58;1.00;;;0.70;;
11386;SDS011;5748;53.102;8.456;2023-03-23T13:59:29;1.23;;;0.80;;
11386;SDS011;5748;53.102;8.456;2023-03-23T14:02:26;1.87;;;1.00;;
11386;SDS011;5748;53.102;8.456;2023-03-23T14:05:08;1.33;;;0.90;;
11386;SDS011;5748;53.102;8.456;2023-03-23T14:07:54;1.03;;;0.83;;
11386;SDS011;5748;53.102;8.456;2023-03-23T14:10:25;1.03;;;0.70;;
11386;SDS011;5748;53.102;8.456;2023-03-23T14:13:00;0.82;;;0.60;;
11386;SDS011;5748;53.102;8.456;2023-03-23T14:15:29;1.65;;;0.85;;
11386;SDS011;5748;53.102;8.456;2023-03-23T14:18:03;1.52;;;0.70;;
11386;SDS011;5748;53.102;8.456;2023-03-23T14:20:31;1.58;;;0.75;;
11386;SDS011;5748;53.102;8.456;2023-03-23T14:23:02;1.38;;;0.68;;
11386;SDS011;5748;53.102;8.456;2023-03-23T14:25:30;1.20;;;0.70;;
11386;SDS011;5748;53.102;8.456;2023-03-23T14:27:58;1.40;;;0.80;;
11386;SDS011;5748;53.102;8.456;2023-03-23T14:30:27;1.20;;;0.77;;
11386;SDS011;5748;53.102;8.456;2023-03-23T14:33:03;1.48;;;0.98;;
11386;SDS011;5748;53.102;8.456;2023-03-23T14:35:35;1.70;;;1.02;;
11386;SDS011;5748;53.102;8.456;2023-03-23T14:38:05;1.80;;;0.77;;
11386;SDS011;5748;53.102;8.456;2023-03-23T14:40:43;1.40;;;0.77;;
11386;SDS011;5748;53.102;8.456;2023-03-23T14:43:12;1.20;;;0.82;;
11386;SDS011;5748;53.102;8.456;2023-03-23T14:45:51;1.58;;;1.00;;
11386;SDS011;5748;53.102;8.456;2023-03-23T14:48:19;0.90;;;0.82;;
11386;SDS011;5748;53.102;8.456;2023-03-23T14:50:51;1.00;;;0.80;;
11386;SDS011;5748;53.102;8.456;2023-03-23T14:53:23;1.83;;;0.95;;
11386;SDS011;5748;53.102;8.456;2023-03-23T14:55:53;1.40;;;0.80;;
11386;SDS011;5748;53.102;8.456;2023-03-23T14:58:22;2.47;;;1.20;;
11386;SDS011;5748;53.102;8.456;2023-03-23T15:00:52;2.40;;;1.27;;
11386;SDS011;5748;53.102;8.456;2023-03-23T15:03:23;2.23;;;1.10;;
11386;SDS011;5748;53.102;8.456;2023-03-23T15:05:51;2.03;;;1.00;;
11386;SDS011;5748;53.102;8.456;2023-03-23T15:08:25;2.00;;;1.20;;
11386;SDS011;5748;53.102;8.456;2023-03-23T15:10:58;2.37;;;1.00;;
11386;SDS011;5748;53.102;8.456;2023-03-23T15:13:33;1.70;;;0.83;;
11386;SDS011;5748;53.102;8.456;2023-03-23T15:16:02;1.93;;;1.27;;
11386;SDS011;5748;53.102;8.456;2023-03-23T15:18:33;2.80;;;1.10;;
11386;SDS011;5748;53.102;8.456;2023-03-23T15:21:10;2.30;;;1.30;;
11386;SDS011;5748;53.102;8.456;2023-03-23T15:23:48;2.40;;;1.20;;
11386;SDS011;5748;53.102;8.456;2023-03-23T15:26:20;1.83;;;1.07;;
11386;SDS011;5748;53.102;8.456;2023-03-23T15:29:12;1.77;;;1.00;;
11386;SDS011;5748;53.102;8.456;2023-03-23T15:31:44;1.80;;;1.03;;
11386;SDS011;5748;53.102;8.456;2023-03-23T15:34:19;1.47;;;1.00;;
11386;SDS011;5748;53.102;8.456;2023-03-23T15:36:54;2.00;;;1.03;;
11386;SDS011;5748;53.102;8.456;2023-03-23T15:39:29;1.67;;;0.90;;
11386;SDS011;5748;53.102;8.456;2023-03-23T15:41:57;1.40;;;1.00;;
11386;SDS011;5748;53.102;8.456;2023-03-23T15:44:27;1.60;;;1.10;;
11386;SDS011;5748;53.102;8.456;2023-03-23T15:47:10;1.93;;;1.20;;
11386;SDS011;5748;53.102;8.456;2023-03-23T15:49:41;1.03;;;0.80;;
11386;SDS011;5748;53.102;8.456;2023-03-23T15:52:11;1.80;;;1.10;;
11386;SDS011;5748;53.102;8.456;2023-03-23T15:54:47;1.63;;;1.03;;
11386;SDS011;5748;53.102;8.456;2023-03-23T15:57:14;1.60;;;1.10;;